Time;durP1;ratioP1;P1;durP2;ratioP2;P2;SDS_P1;SDS_P2;PMS_P1;PMS_P2;Temp;Humidity;BMP_temperature;BMP_pressure;BME280_temperature;BME280_humidity;BME280_pressure;Samples;Min_cycle;Max_cycle;Signal;HPM_P1;HPM_P2
2024/01/26 00:01:30;;;;;;;67.03;26.45;;;7.20;99.90;;;;;;5073585;28;20044;-51
2024/01/26 00:03:57;;;;;;;71.80;26.42;;;7.50;99.90;;;;;;5073518;28;20059;-49
2024/01/26 00:06:23;;;;;;;73.85;25.63;;;9.50;99.90;;;;;;5073093;28;20473;-50
2024/01/26 00:08:49;;;;;;;64.05;23.17;;;9.20;99.90;;;;;;5072975;28;20062;-46
2024/01/26 00:11:16;;;;;;;68.57;26.75;;;8.20;99.90;;;;;;5072769;28;20094;-48
2024/01/26 00:13:42;;;;;;;69.65;24.73;;;9.50;99.90;;;;;;5073013;28;20076;-46
2024/01/26 00:16:07;;;;;;;69.82;26.65;;;7.90;99.90;;;;;;5073200;28;20078;-48
2024/01/26 00:18:34;;;;;;;71.85;27.17;;;8.70;99.90;;;;;;5072823;28;20043;-48
2024/01/26 00:21:00;;;;;;;71.18;25.67;;;8.90;99.90;;;;;;5073149;28;20059;-49
2024/01/26 00:23:25;;;;;;;72.75;25.35;;;7.60;99.90;;;;;;5073123;28;20420;-47
2024/01/26 00:25:51;;;;;;;70.60;25.60;;;9.00;99.90;;;;;;5072757;28;20041;-50
2024/01/26 00:28:17;;;;;;;75.60;26.02;;;9.70;99.90;;;;;;5072954;28;20040;-47
2024/01/26 00:30:42;;;;;;;69.05;26.88;;;9.60;99.90;;;;;;5072770;28;20495;-50
2024/01/26 00:33:08;;;;;;;65.70;26.42;;;8.50;99.90;;;;;;5072532;28;20032;-47
2024/01/26 00:35:34;;;;;;;71.32;27.42;;;9.80;99.90;;;;;;5072527;28;20119;-48
2024/01/26 00:37:59;;;;;;;67.15;26.33;;;10.00;99.90;;;;;;5072753;28;20075;-48
2024/01/26 00:40:25;;;;;;;65.70;24.85;;;9.70;99.90;;;;;;5072607;28;20477;-47
2024/01/26 00:42:51;;;;;;;65.40;25.02;;;8.20;99.90;;;;;;5071276;28;20051;-50
2024/01/26 00:45:17;;;;;;;70.15;26.48;;;9.60;99.90;;;;;;5072625;28;20388;-48
2024/01/26 00:47:42;;;;;;;66.63;25.95;;;9.00;99.90;;;;;;5072706;28;20032;-46
2024/01/26 00:50:09;;;;;;;69.85;26.63;;;7.60;99.90;;;;;;5072648;28;20105;-47
2024/01/26 00:52:35;;;;;;;65.45;24.55;;;7.50;99.90;;;;;;5072149;28;20053;-46
2024/01/26 00:55:01;;;;;;;60.80;25.52;;;7.60;99.90;;;;;;5072270;28;20044;-47
2024/01/26 00:57:27;;;;;;;62.85;26.02;;;9.90;99.90;;;;;;5072535;28;20040;-47
2024/01/26 00:59:52;;;;;;;57.55;24.98;;;8.30;99.90;;;;;;5072428;28;20044;-48
2024/01/26 01:02:18;;;;;;;56.05;24.30;;;9.90;99.90;;;;;;5072184;28;20048;-46
2024/01/26 01:04:44;;;;;;;49.53;21.75;;;7.70;99.90;;;;;;5072211;28;20067;-49
2024/01/26 01:07:09;;;;;;;47.17;20.00;;;7.60;99.90;;;;;;5072256;28;20476;-46
2024/01/26 01:09:38;;;;;;;49.83;21.05;;;10.00;99.90;;;;;;5072119;28;20727;-47
2024/01/26 01:12:04;;;;;;;44.28;20.25;;;10.00;99.90;;;;;;5071741;28;20052;-47
2024/01/26 01:14:30;;;;;;;44.70;18.90;;;7.70;99.90;;;;;;5071875;28;20079;-49
2024/01/26 01:16:58;;;;;;;47.92;21.17;;;8.90;99.90;;;;;;5071975;28;20071;-47
2024/01/26 01:19:24;;;;;;;44.78;20.15;;;7.70;99.90;;;;;;5072021;28;20126;-46
2024/01/26 01:21:50;;;;;;;52.30;22.90;;;9.90;99.90;;;;;;5072022;28;20477;-47
2024/01/26 01:24:16;;;;;;;49.28;23.48;;;8.00;99.90;;;;;;5070670;28;20081;-46
2024/01/26 01:26:41;;;;;;;45.58;20.95;;;9.10;99.90;;;;;;5072320;28;20048;-51
2024/01/26 01:29:07;;;;;;;42.40;19.20;;;8.70;99.90;;;;;;5072242;28;20511;-47
2024/01/26 01:31:33;;;;;;;44.60;20.13;;;10.30;99.90;;;;;;5071940;28;20044;-49
2024/01/26 01:33:59;;;;;;;42.33;19.52;;;7.90;99.90;;;;;;5070975;28;20032;-50
2024/01/26 01:36:24;;;;;;;41.10;19.45;;;10.20;99.90;;;;;;5070656;28;20182;-48
2024/01/26 01:38:50;;;;;;;45.75;21.40;;;10.10;99.90;;;;;;5071933;28;20040;-47
2024/01/26 01:41:15;;;;;;;38.00;18.00;;;8.80;99.90;;;;;;5071936;28;20040;-51
2024/01/26 01:43:41;;;;;;;38.20;19.52;;;7.90;99.90;;;;;;5072025;28;20040;-48
2024/01/26 01:46:08;;;;;;;44.58;21.80;;;9.80;99.90;;;;;;5071921;28;20036;-49
2024/01/26 01:48:34;;;;;;;34.20;18.65;;;10.30;99.90;;;;;;5071609;28;20136;-47
2024/01/26 01:50:59;;;;;;;37.55;20.42;;;10.40;99.90;;;;;;5071918;28;20123;-49
2024/01/26 01:53:26;;;;;;;35.97;19.33;;;10.30;99.90;;;;;;5071569;28;20048;-48
2024/01/26 01:55:52;;;;;;;37.67;20.70;;;8.20;99.90;;;;;;5071527;28;20044;-47
2024/01/26 01:58:19;;;;;;;35.60;19.55;;;9.20;99.90;;;;;;5071752;28;20071;-51
2024/01/26 02:00:46;;;;;;;34.47;19.45;;;9.30;99.90;;;;;;5071614;28;20044;-50
2024/01/26 02:03:12;;;;;;;37.50;20.77;;;10.20;99.90;;;;;;5071875;28;20048;-48
2024/01/26 02:05:37;;;;;;;35.28;18.95;;;9.30;99.90;;;;;;5071568;28;20043;-50
2024/01/26 02:08:03;;;;;;;32.53;18.17;;;9.70;99.90;;;;;;5071790;28;20179;-50
2024/01/26 02:10:29;;;;;;;31.70;18.83;;;7.60;99.90;;;;;;5071417;28;20040;-48
2024/01/26 02:12:55;;;;;;;34.10;19.73;;;10.40;99.90;;;;;;5074534;28;20036;-47
2024/01/26 02:15:20;;;;;;;34.38;20.67;;;7.80;99.90;;;;;;5075589;28;20465;-48
2024/01/26 02:17:46;;;;;;;33.65;19.30;;;10.30;99.90;;;;;;5075580;28;20033;-49
2024/01/26 02:20:12;;;;;;;39.83;20.25;;;10.20;99.90;;;;;;5075561;28;20571;-47
2024/01/26 02:22:38;;;;;;;36.38;20.70;;;8.20;99.90;;;;;;5075382;28;20450;-49
2024/01/26 02:25:05;;;;;;;36.22;21.17;;;9.50;99.90;;;;;;5075098;28;20519;-47
2024/01/26 02:27:33;;;;;;;36.30;20.30;;;10.10;99.90;;;;;;5075106;28;20051;-48
2024/01/26 02:29:58;;;;;;;38.83;21.70;;;8.00;99.90;;;;;;5074997;28;20079;-49
2024/01/26 02:32:24;;;;;;;35.38;20.60;;;10.50;99.90;;;;;;5075123;28;20072;-47
2024/01/26 02:34:50;;;;;;;37.95;21.83;;;8.20;99.90;;;;;;5074815;28;20041;-46
2024/01/26 02:37:15;;;;;;;36.25;22.23;;;8.10;99.90;;;;;;5074948;28;20036;-46
2024/01/26 02:39:41;;;;;;;36.72;21.27;;;8.70;99.90;;;;;;5075097;28;20495;-51
2024/01/26 02:42:07;;;;;;;35.88;21.90;;;8.80;99.90;;;;;;5074937;28;20062;-47
2024/01/26 02:44:33;;;;;;;36.00;21.65;;;9.80;99.90;;;;;;5075087;28;20126;-50
2024/01/26 02:46:59;;;;;;;35.83;22.45;;;8.40;99.90;;;;;;5074745;28;20539;-46
2024/01/26 02:49:25;;;;;;;36.60;22.05;;;10.30;99.90;;;;;;5074716;28;20044;-49
2024/01/26 02:51:51;;;;;;;34.58;20.67;;;9.50;99.90;;;;;;5073378;28;20064;-47
2024/01/26 02:54:16;;;;;;;33.00;20.58;;;10.50;99.90;;;;;;5074889;28;20465;-50
2024/01/26 02:56:42;;;;;;;35.35;21.17;;;8.20;99.90;;;;;;5074561;28;20089;-48
2024/01/26 02:59:08;;;;;;;35.90;20.65;;;10.40;99.90;;;;;;5074720;28;20792;-50
2024/01/26 03:01:33;;;;;;;34.50;20.13;;;10.40;99.90;;;;;;5074514;28;20041;-46
2024/01/26 03:03:59;;;;;;;28.80;19.00;;;8.50;99.90;;;;;;5074500;28;20113;-48
2024/01/26 03:06:25;;;;;;;32.72;21.10;;;8.60;99.90;;;;;;5074209;28;20059;-48
2024/01/26 03:08:51;;;;;;;36.88;20.55;;;9.50;99.90;;;;;;5074242;28;20051;-49
2024/01/26 03:11:17;;;;;;;33.25;19.67;;;9.50;99.90;;;;;;5074298;28;20101;-46
2024/01/26 03:13:42;;;;;;;30.73;18.48;;;10.30;99.90;;;;;;5074289;28;20052;-47
2024/01/26 03:16:10;;;;;;;30.83;19.42;;;10.30;99.90;;;;;;5074066;28;20040;-46
2024/01/26 03:18:36;;;;;;;32.85;18.83;;;10.50;99.90;;;;;;5074038;28;20151;-46
2024/01/26 03:21:01;;;;;;;29.95;18.13;;;10.10;99.90;;;;;;5074080;28;20495;-47
2024/01/26 03:23:27;;;;;;;31.95;17.02;;;8.80;99.90;;;;;;5073131;28;20139;-46
2024/01/26 03:25:53;;;;;;;30.17;17.00;;;10.30;99.90;;;;;;5073974;28;20050;-48
2024/01/26 03:28:19;;;;;;;31.40;18.20;;;9.70;99.90;;;;;;5074000;28;20044;-46
2024/01/26 03:30:45;;;;;;;34.67;18.27;;;10.50;99.90;;;;;;5073925;28;20044;-47
2024/01/26 03:33:10;;;;;;;29.88;16.63;;;10.30;99.90;;;;;;5073855;28;20123;-47
2024/01/26 03:35:36;;;;;;;32.60;17.85;;;8.80;99.90;;;;;;5073865;28;20098;-51
2024/01/26 03:38:02;;;;;;;31.02;18.92;;;10.60;99.90;;;;;;5073819;28;20043;-47
2024/01/26 03:40:28;;;;;;;32.25;18.10;;;9.00;99.90;;;;;;5073782;28;20105;-48
2024/01/26 03:42:54;;;;;;;32.08;18.88;;;10.40;99.90;;;;;;5073696;28;20036;-49
2024/01/26 03:45:20;;;;;;;37.05;20.02;;;8.20;99.90;;;;;;5073640;28;20404;-50
2024/01/26 03:47:45;;;;;;;35.83;19.17;;;9.70;99.90;;;;;;5073622;28;20041;-47
2024/01/26 03:50:12;;;;;;;35.28;18.27;;;9.80;99.90;;;;;;5073332;28;20044;-47
2024/01/26 03:52:37;;;;;;;33.63;18.48;;;10.50;99.90;;;;;;5073062;28;20055;-47
2024/01/26 03:55:06;;;;;;;34.63;18.85;;;9.90;99.90;;;;;;5071983;28;20408;-46
2024/01/26 03:57:33;;;;;;;35.60;19.30;;;9.20;99.90;;;;;;5073310;28;20112;-47
2024/01/26 03:59:59;;;;;;;38.33;18.77;;;10.70;99.90;;;;;;5073484;28;20048;-48
2024/01/26 04:02:25;;;;;;;35.20;17.75;;;10.60;99.90;;;;;;5073263;28;20039;-51
2024/01/26 04:04:51;;;;;;;38.97;19.40;;;10.60;99.90;;;;;;5073092;28;20077;-50
2024/01/26 04:07:17;;;;;;;34.50;17.73;;;8.60;99.90;;;;;;5071606;28;20115;-48
2024/01/26 04:09:42;;;;;;;35.15;19.42;;;8.50;99.90;;;;;;5073294;28;20036;-49
2024/01/26 04:12:08;;;;;;;37.72;18.50;;;10.20;99.90;;;;;;5073200;28;20480;-48
2024/01/26 04:14:34;;;;;;;36.78;18.98;;;9.10;99.90;;;;;;5073093;28;20124;-47
2024/01/26 04:16:59;;;;;;;35.38;19.30;;;10.50;99.90;;;;;;5072784;28;20332;-48
2024/01/26 04:19:25;;;;;;;35.97;19.90;;;10.20;99.90;;;;;;5072770;28;20092;-47
2024/01/26 04:21:51;;;;;;;38.60;19.05;;;10.40;99.90;;;;;;5073017;28;20046;-47
2024/01/26 04:24:18;;;;;;;36.53;19.55;;;10.80;99.90;;;;;;5072858;28;20102;-47
2024/01/26 04:26:43;;;;;;;36.67;19.38;;;10.50;99.90;;;;;;5072628;28;20039;-47
2024/01/26 04:29:09;;;;;;;36.97;19.67;;;10.60;99.90;;;;;;5072562;28;20037;-46
2024/01/26 04:31:41;;;;;;;38.92;20.70;;;8.20;99.90;;;;;;5072603;28;20473;-48
2024/01/26 04:34:07;;;;;;;34.85;19.75;;;8.70;99.90;;;;;;5072528;28;20419;-47
2024/01/26 04:36:32;;;;;;;35.38;20.63;;;8.40;99.90;;;;;;5072659;28;20040;-46
2024/01/26 04:38:59;;;;;;;34.97;19.58;;;11.00;99.90;;;;;;5072471;28;20036;-47
2024/01/26 04:41:25;;;;;;;38.50;20.48;;;9.10;99.90;;;;;;5071187;28;20384;-47
2024/01/26 04:43:51;;;;;;;36.95;19.83;;;9.90;99.90;;;;;;5072591;28;20045;-48
2024/01/26 04:46:17;;;;;;;43.63;22.77;;;10.60;99.90;;;;;;5072622;28;20051;-48
2024/01/26 04:48:42;;;;;;;38.42;20.25;;;9.20;99.90;;;;;;5072410;28;20457;-46
2024/01/26 04:51:08;;;;;;;36.22;19.92;;;8.50;99.90;;;;;;5072448;28;20055;-47
2024/01/26 04:53:33;;;;;;;36.33;20.40;;;8.40;99.90;;;;;;5070900;28;20053;-47
2024/01/26 04:55:59;;;;;;;34.72;19.17;;;8.70;99.90;;;;;;5072623;28;20167;-47
2024/01/26 04:58:25;;;;;;;36.50;20.50;;;10.40;99.90;;;;;;5072549;28;20041;-48
2024/01/26 05:00:51;;;;;;;34.80;20.80;;;10.10;99.90;;;;;;5072152;28;20044;-48
2024/01/26 05:03:16;;;;;;;38.10;20.80;;;10.80;99.90;;;;;;5072177;28;20049;-46
2024/01/26 05:05:42;;;;;;;37.08;19.15;;;9.20;99.90;;;;;;5072207;28;20037;-48
2024/01/26 05:08:08;;;;;;;36.17;20.13;;;8.70;99.90;;;;;;5072429;28;20036;-50
2024/01/26 05:10:33;;;;;;;36.42;20.98;;;10.50;99.90;;;;;;5072188;28;20044;-47
2024/01/26 05:12:59;;;;;;;34.58;19.98;;;9.20;99.90;;;;;;5072274;28;20548;-47
2024/01/26 05:15:25;;;;;;;31.45;19.42;;;10.20;99.90;;;;;;5072002;28;20111;-48
2024/01/26 05:17:50;;;;;;;38.15;19.13;;;11.00;99.90;;;;;;5072012;28;20477;-49
2024/01/26 05:20:16;;;;;;;33.55;19.30;;;11.00;99.90;;;;;;5072215;28;20159;-48
2024/01/26 05:22:42;;;;;;;33.30;20.10;;;10.60;99.90;;;;;;5071862;28;20048;-46
2024/01/26 05:25:08;;;;;;;37.97;20.20;;;9.00;99.90;;;;;;5072249;28;20051;-47
2024/01/26 05:27:34;;;;;;;32.63;18.90;;;10.20;99.90;;;;;;5070641;28;20044;-47
2024/01/26 05:30:00;;;;;;;32.78;18.30;;;8.70;99.90;;;;;;5071943;28;20052;-49
2024/01/26 05:32:26;;;;;;;34.38;18.45;;;9.00;99.90;;;;;;5071719;28;20560;-47
2024/01/26 05:34:51;;;;;;;35.67;19.20;;;11.10;99.90;;;;;;5071878;28;20121;-48
2024/01/26 05:37:17;;;;;;;34.97;19.45;;;11.00;99.90;;;;;;5071998;28;20041;-48
2024/01/26 05:39:43;;;;;;;34.60;19.13;;;11.50;99.90;;;;;;5071931;28;20043;-46
2024/01/26 05:42:08;;;;;;;29.20;17.50;;;8.60;99.90;;;;;;5071831;28;20049;-49
2024/01/26 05:44:34;;;;;;;28.70;17.88;;;10.90;99.90;;;;;;5071680;28;20056;-59
2024/01/26 05:47:00;;;;;;;26.60;17.63;;;11.50;99.90;;;;;;5073237;28;20037;-60
2024/01/26 05:49:25;;;;;;;31.50;18.35;;;11.10;99.90;;;;;;5076074;28;20048;-60
2024/01/26 05:51:52;;;;;;;29.38;17.13;;;10.30;99.90;;;;;;5075736;28;20060;-60
2024/01/26 05:54:17;;;;;;;29.40;18.50;;;10.60;99.90;;;;;;5076049;28;20044;-60
2024/01/26 05:56:43;;;;;;;30.13;17.40;;;8.90;99.90;;;;;;5074413;28;20036;-60
2024/01/26 05:59:09;;;;;;;28.48;17.60;;;11.50;99.90;;;;;;5075487;28;20040;-59
2024/01/26 06:01:35;;;;;;;26.17;16.75;;;11.60;99.90;;;;;;5075722;28;20040;-59
2024/01/26 06:04:01;;;;;;;30.40;18.17;;;8.70;99.90;;;;;;5075585;28;20459;-59
2024/01/26 06:06:27;;;;;;;29.58;16.95;;;11.60;99.90;;;;;;5075460;28;20066;-60
2024/01/26 06:08:52;;;;;;;28.17;17.20;;;8.90;99.90;;;;;;5074134;28;20055;-60
2024/01/26 06:11:20;;;;;;;27.65;17.40;;;9.10;99.90;;;;;;5075338;28;20048;-59
2024/01/26 06:13:46;;;;;;;24.95;15.90;;;11.50;99.90;;;;;;5075247;28;20067;-59
2024/01/26 06:16:14;;;;;;;27.88;17.27;;;11.60;99.90;;;;;;5075554;28;20036;-59
2024/01/26 06:18:41;;;;;;;29.38;16.92;;;9.00;99.90;;;;;;5075460;28;20112;-60
2024/01/26 06:21:09;;;;;;;28.30;17.38;;;8.90;99.90;;;;;;5073929;28;20044;-59
2024/01/26 06:23:34;;;;;;;26.80;17.10;;;9.00;99.90;;;;;;5075208;28;20106;-59
2024/01/26 06:26:00;;;;;;;32.08;18.35;;;10.20;99.90;;;;;;5075452;28;20037;-59
2024/01/26 06:28:25;;;;;;;32.20;18.67;;;9.60;99.90;;;;;;5074900;28;20090;-59
2024/01/26 06:30:51;;;;;;;30.67;17.95;;;9.00;99.90;;;;;;5075010;28;20154;-59
2024/01/26 06:33:17;;;;;;;34.83;19.77;;;10.50;99.90;;;;;;5075117;28;20047;-58
2024/01/26 06:35:42;;;;;;;33.85;19.27;;;9.60;99.90;;;;;;5075087;28;20385;-59
2024/01/26 06:38:08;;;;;;;32.22;18.92;;;11.60;99.90;;;;;;5074974;28;20821;-59
2024/01/26 06:40:34;;;;;;;29.90;18.55;;;10.00;99.90;;;;;;5074874;28;20043;-59
2024/01/26 06:43:05;;;;;;;29.67;17.98;;;10.70;99.90;;;;;;5074720;28;20385;-60
2024/01/26 06:45:31;;;;;;;28.75;17.42;;;11.40;99.90;;;;;;5074605;28;20119;-59
2024/01/26 06:47:57;;;;;;;31.45;15.80;;;11.40;99.90;;;;;;5074714;28;20063;-59
2024/01/26 06:50:22;;;;;;;28.98;16.17;;;9.00;99.90;;;;;;5074749;28;20480;-60
2024/01/26 06:52:48;;;;;;;29.55;16.25;;;9.60;99.90;;;;;;5074480;28;20053;-60
2024/01/26 06:55:14;;;;;;;25.95;15.13;;;9.30;99.90;;;;;;5074899;28;20036;-60
2024/01/26 06:57:39;;;;;;;26.88;15.07;;;11.50;99.90;;;;;;5074217;28;20115;-59
2024/01/26 07:00:07;;;;;;;23.92;15.57;;;8.70;99.90;;;;;;5074571;28;20045;-60
2024/01/26 07:02:33;;;;;;;28.10;14.52;;;10.30;99.90;;;;;;5074789;28;20098;-60
2024/01/26 07:04:59;;;;;;;23.00;13.68;;;9.10;99.90;;;;;;5074612;28;20055;-59
2024/01/26 07:07:25;;;;;;;23.13;13.60;;;11.10;99.90;;;;;;5074521;28;20044;-59
2024/01/26 07:09:50;;;;;;;24.50;13.80;;;8.80;99.90;;;;;;5074434;28;20048;-48
2024/01/26 07:12:16;;;;;;;22.30;13.05;;;12.00;99.90;;;;;;5072755;28;20071;-47
2024/01/26 07:14:42;;;;;;;20.95;12.40;;;10.80;99.90;;;;;;5074578;28;20052;-48
2024/01/26 07:17:08;;;;;;;20.58;12.40;;;9.20;99.90;;;;;;5074597;28;20036;-49
2024/01/26 07:19:33;;;;;;;23.17;13.18;;;11.20;99.90;;;;;;5074432;28;20127;-48
2024/01/26 07:21:59;;;;;;;21.58;12.88;;;11.80;99.90;;;;;;5074263;28;20129;-47
2024/01/26 07:24:25;;;;;;;23.08;13.27;;;8.80;99.90;;;;;;5073777;28;20040;-47
2024/01/26 07:26:52;;;;;;;22.17;13.15;;;10.80;99.90;;;;;;5073632;28;20054;-47
2024/01/26 07:29:17;;;;;;;22.98;12.48;;;9.20;99.90;;;;;;5073879;28;20049;-47
2024/01/26 07:31:44;;;;;;;22.38;12.82;;;10.10;99.90;;;;;;5073905;28;20048;-50
2024/01/26 07:34:10;;;;;;;21.63;12.00;;;12.00;99.90;;;;;;5072904;28;20032;-50
2024/01/26 07:36:36;;;;;;;20.52;11.25;;;12.00;99.90;;;;;;5054961;28;20037;-46
2024/01/26 07:39:05;;;;;;;17.23;10.75;;;9.00;99.90;;;;;;5073026;28;20102;-49
2024/01/26 07:41:31;;;;;;;16.63;10.25;;;9.60;99.90;;;;;;5071598;28;20052;-50
2024/01/26 07:43:57;;;;;;;16.00;9.32;;;12.00;99.90;;;;;;5072793;28;20059;-46
2024/01/26 07:46:22;;;;;;;18.13;9.68;;;10.40;99.90;;;;;;5071507;28;20052;-49
2024/01/26 07:48:48;;;;;;;16.13;9.48;;;9.20;99.90;;;;;;5072627;28;20044;-50
2024/01/26 07:51:14;;;;;;;18.48;9.55;;;12.10;99.90;;;;;;5072706;28;20040;-49
2024/01/26 07:53:39;;;;;;;16.95;9.88;;;9.50;99.90;;;;;;5072305;28;20128;-51
2024/01/26 07:56:06;;;;;;;14.48;8.65;;;9.30;99.90;;;;;;5072656;28;20044;-46
2024/01/26 07:58:32;;;;;;;13.85;8.25;;;11.40;99.90;;;;;;5072393;28;20060;-47
2024/01/26 08:00:58;;;;;;;14.30;8.38;;;12.20;99.90;;;;;;5072592;28;20048;-46
2024/01/26 08:03:23;;;;;;;15.40;9.20;;;9.50;99.90;;;;;;5071863;28;20225;-50
2024/01/26 08:05:49;;;;;;;17.38;9.73;;;9.30;99.90;;;;;;5072133;28;20039;-48
2024/01/26 08:08:15;;;;;;;15.50;9.35;;;9.10;99.90;;;;;;5072141;28;20044;-46
2024/01/26 08:10:40;;;;;;;13.68;8.60;;;9.00;99.90;;;;;;5071442;28;20040;-46
2024/01/26 08:13:06;;;;;;;14.43;8.80;;;11.40;99.90;;;;;;5072529;28;20047;-49
2024/01/26 08:15:32;;;;;;;13.10;7.85;;;9.70;99.90;;;;;;5072261;28;20044;-47
2024/01/26 08:17:58;;;;;;;13.77;8.10;;;12.10;99.90;;;;;;5071863;28;20384;-51
2024/01/26 08:20:23;;;;;;;14.73;8.38;;;10.60;99.90;;;;;;5072456;28;20047;-46
2024/01/26 08:22:49;;;;;;;13.65;8.18;;;8.80;99.90;;;;;;5071982;28;20533;-46
2024/01/26 08:25:15;;;;;;;17.13;8.65;;;9.30;99.90;;;;;;5072165;28;20074;-48
2024/01/26 08:27:40;;;;;;;15.35;9.00;;;12.10;99.90;;;;;;5071614;28;20040;-47
2024/01/26 08:30:06;;;;;;;14.50;7.68;;;8.80;99.90;;;;;;5071610;28;20036;-51
2024/01/26 08:32:32;;;;;;;14.70;7.43;;;9.40;99.90;;;;;;5071239;28;20502;-46
2024/01/26 08:34:58;;;;;;;13.63;8.02;;;11.90;99.90;;;;;;5071584;28;20028;-50
2024/01/26 08:37:24;;;;;;;15.23;8.38;;;11.50;99.90;;;;;;5071263;28;20461;-50
2024/01/26 08:39:49;;;;;;;16.65;9.88;;;11.20;99.90;;;;;;5071780;28;20040;-47
2024/01/26 08:42:15;;;;;;;20.13;10.88;;;11.70;99.90;;;;;;5071665;28;20048;-48
2024/01/26 08:44:41;;;;;;;17.20;9.98;;;11.60;99.90;;;;;;5071073;28;20074;-47
2024/01/26 08:47:06;;;;;;;17.80;9.40;;;8.80;99.90;;;;;;5071458;28;20119;-47
2024/01/26 08:49:32;;;;;;;18.15;8.75;;;11.90;99.90;;;;;;5071345;28;20477;-50
2024/01/26 08:52:01;;;;;;;16.63;8.77;;;10.10;99.90;;;;;;5071126;28;20087;-46
2024/01/26 08:54:27;;;;;;;18.30;8.45;;;8.80;99.90;;;;;;5071073;28;20070;-47
2024/01/26 08:56:52;;;;;;;19.77;7.28;;;10.70;99.90;;;;;;5070859;28;20047;-48
2024/01/26 08:59:18;;;;;;;23.30;7.55;;;10.80;99.90;;;;;;5071099;28;20048;-46
2024/01/26 09:01:44;;;;;;;19.83;6.15;;;11.40;99.90;;;;;;5069790;28;20049;-49
2024/01/26 09:04:09;;;;;;;19.17;6.45;;;11.80;99.90;;;;;;5071109;28;20044;-46
2024/01/26 09:06:35;;;;;;;21.40;5.30;;;8.90;99.90;;;;;;5070948;28;20047;-48
2024/01/26 09:09:02;;;;;;;12.65;3.67;;;9.40;99.90;;;;;;5071297;28;20145;-48
2024/01/26 09:11:28;;;;;;;7.90;2.00;;;10.00;99.90;;;;;;5070060;28;20045;-47
2024/01/26 09:13:56;;;;;;;6.47;1.20;;;8.90;99.90;;;;;;5071004;28;20051;-50
2024/01/26 09:16:22;;;;;;;6.82;1.27;;;10.30;99.90;;;;;;5071234;28;20647;-49
2024/01/26 09:18:48;;;;;;;4.63;1.23;;;10.30;99.90;;;;;;5071473;28;20685;-49
2024/01/26 09:21:14;;;;;;;5.60;1.00;;;10.00;99.90;;;;;;5071143;28;20033;-51
2024/01/26 09:23:40;;;;;;;5.47;1.00;;;8.00;99.90;;;;;;5071731;28;20492;-49
2024/01/26 09:26:06;;;;;;;5.70;1.10;;;10.10;99.90;;;;;;5071959;28;20389;-46
2024/01/26 09:28:32;;;;;;;7.35;0.80;;;8.20;99.90;;;;;;5071993;28;20050;-47
2024/01/26 09:30:58;;;;;;;6.70;0.82;;;8.20;99.90;;;;;;5071614;28;20113;-51
2024/01/26 09:33:23;;;;;;;6.32;1.13;;;9.20;99.90;;;;;;5072042;28;20485;-50
2024/01/26 09:35:49;;;;;;;7.45;1.83;;;10.10;99.90;;;;;;5071842;28;20537;-47
2024/01/26 09:38:15;;;;;;;15.05;1.30;;;8.00;99.90;;;;;;5070796;28;20032;-45
2024/01/26 09:40:44;;;;;;;8.35;1.02;;;7.40;99.90;;;;;;5071922;28;20036;-48
2024/01/26 09:43:11;;;;;;;11.43;2.10;;;7.20;99.90;;;;;;5071712;28;20385;-48
2024/01/26 09:45:37;;;;;;;11.55;1.95;;;8.10;99.90;;;;;;5070579;28;20045;-47
2024/01/26 09:48:05;;;;;;;15.27;1.92;;;7.90;99.90;;;;;;5070414;28;20083;-48
2024/01/26 09:50:32;;;;;;;10.63;1.63;;;7.50;99.90;;;;;;5071861;28;20040;-47
2024/01/26 09:52:59;;;;;;;11.50;1.65;;;8.50;99.90;;;;;;5071405;28;20100;-48
2024/01/26 09:55:25;;;;;;;14.07;1.98;;;8.00;99.90;;;;;;5071914;28;20064;-49
2024/01/26 09:57:53;;;;;;;15.82;2.13;;;7.90;99.90;;;;;;5071663;28;20460;-50
2024/01/26 10:00:19;;;;;;;15.30;2.30;;;9.30;99.90;;;;;;5071502;28;20040;-53
2024/01/26 10:02:45;;;;;;;15.63;2.53;;;7.80;99.90;;;;;;5071450;28;20570;-47
2024/01/26 10:05:15;;;;;;;14.80;2.13;;;7.90;99.90;;;;;;5071742;28;20119;-46
2024/01/26 10:07:41;;;;;;;17.88;2.45;;;9.00;99.90;;;;;;5071827;28;20075;-49
2024/01/26 10:10:07;;;;;;;13.10;1.95;;;8.30;99.90;;;;;;5066279;28;20060;-46
2024/01/26 10:12:35;;;;;;;16.60;2.30;;;7.60;99.90;;;;;;5053978;28;20445;-46
2024/01/26 10:15:07;;;;;;;20.45;3.00;;;8.20;99.90;;;;;;5050239;28;20049;-48
2024/01/26 10:17:33;;;;;;;12.95;2.55;;;8.50;99.90;;;;;;5051342;28;20064;-48
2024/01/26 10:20:18;;;;;;;14.07;1.95;;;8.00;99.90;;;;;;5054184;28;20124;-46
2024/01/26 10:22:45;;;;;;;16.85;2.40;;;7.80;99.90;;;;;;5060295;28;20040;-46
2024/01/26 10:25:11;;;;;;;15.25;2.17;;;8.40;99.90;;;;;;5060501;28;20505;-48
2024/01/26 10:27:37;;;;;;;13.73;1.90;;;7.90;99.90;;;;;;5060664;28;20036;-46
2024/01/26 10:30:04;;;;;;;16.88;2.65;;;7.90;99.90;;;;;;5062203;28;20101;-47
2024/01/26 10:32:31;;;;;;;12.75;2.10;;;8.20;99.90;;;;;;5060713;28;20033;-47
2024/01/26 10:35:02;;;;;;;16.15;2.20;;;8.40;99.90;;;;;;5063907;28;20312;-46
2024/01/26 10:37:33;;;;;;;12.20;2.80;;;8.50;99.90;;;;;;5063499;28;20087;-45
2024/01/26 10:40:01;;;;;;;14.73;2.90;;;8.40;99.90;;;;;;5063592;28;20097;-45
2024/01/26 10:42:30;;;;;;;14.77;3.25;;;8.50;99.90;;;;;;5068509;28;20040;-45
2024/01/26 10:44:58;;;;;;;18.73;2.40;;;8.50;99.90;;;;;;5074083;28;20504;-47
2024/01/26 10:47:26;;;;;;;18.27;4.65;;;8.00;99.90;;;;;;5073902;28;20040;-46
2024/01/26 10:49:56;;;;;;;14.75;2.63;;;7.90;99.90;;;;;;5073680;28;20298;-46
2024/01/26 10:52:22;;;;;;;14.35;2.22;;;8.50;99.90;;;;;;5063017;28;20053;-46
2024/01/26 10:54:52;;;;;;;11.85;2.17;;;7.90;99.90;;;;;;5072345;28;20401;-46
2024/01/26 10:57:21;;;;;;;22.92;2.88;;;8.10;99.90;;;;;;5074725;28;20119;-46
2024/01/26 10:59:48;;;;;;;11.68;2.10;;;8.40;99.90;;;;;;5074729;28;20388;-47
2024/01/26 11:02:30;;;;;;;14.13;2.28;;;8.00;99.90;;;;;;5074831;28;20119;-50
2024/01/26 11:04:58;;;;;;;12.82;2.50;;;8.30;99.90;;;;;;5074500;28;20137;-47
2024/01/26 11:07:25;;;;;;;12.07;1.48;;;8.30;99.90;;;;;;5074212;28;20040;-46
2024/01/26 11:09:51;;;;;;;13.07;2.25;;;8.00;99.90;;;;;;5074732;28;20091;-48
2024/01/26 11:12:25;;;;;;;16.33;2.55;;;8.20;99.90;;;;;;5074424;28;20033;-48
2024/01/26 11:15:06;;;;;;;14.75;2.67;;;8.10;99.90;;;;;;5074515;28;20044;-51
2024/01/26 11:17:52;;;;;;;16.55;2.40;;;8.40;99.90;;;;;;5074167;28;20037;-47
2024/01/26 11:20:26;;;;;;;14.23;2.50;;;8.10;99.90;;;;;;5074091;28;20044;-47
2024/01/26 11:23:18;;;;;;;14.65;2.22;;;8.30;99.90;;;;;;5074280;28;20059;-47
2024/01/26 11:25:46;;;;;;;15.20;2.08;;;8.10;99.90;;;;;;5072889;28;20049;-50
2024/01/26 11:28:16;;;;;;;10.75;2.08;;;8.00;99.90;;;;;;5074085;28;20159;-51
2024/01/26 11:30:50;;;;;;;14.18;2.40;;;8.20;99.90;;;;;;5074117;28;20123;-47
2024/01/26 11:33:17;;;;;;;14.50;2.00;;;8.10;99.90;;;;;;5072722;28;20051;-48
2024/01/26 11:35:43;;;;;;;14.27;2.55;;;8.00;99.90;;;;;;5074207;28;20060;-50
2024/01/26 11:38:09;;;;;;;11.90;2.83;;;8.10;99.90;;;;;;5067728;28;20114;-50
2024/01/26 11:40:35;;;;;;;13.10;1.85;;;8.30;99.90;;;;;;5063254;28;20033;-50
2024/01/26 11:43:02;;;;;;;14.27;1.83;;;8.00;99.90;;;;;;5063131;28;20047;-46
2024/01/26 11:45:39;;;;;;;14.68;2.25;;;8.10;99.90;;;;;;5064882;28;20043;-50
2024/01/26 11:48:07;;;;;;;17.48;2.65;;;8.10;99.90;;;;;;5061373;28;20119;-48
2024/01/26 11:50:33;;;;;;;14.95;2.85;;;8.00;99.90;;;;;;5063658;28;20072;-47
2024/01/26 11:52:59;;;;;;;15.00;2.25;;;7.90;99.90;;;;;;5066892;28;20063;-49
2024/01/26 11:55:25;;;;;;;18.77;2.40;;;8.00;99.90;;;;;;5073511;28;20041;-50
2024/01/26 11:57:51;;;;;;;13.27;1.92;;;7.70;99.90;;;;;;5073379;28;20481;-50
2024/01/26 12:00:18;;;;;;;19.33;2.72;;;7.50;99.90;;;;;;5073763;28;20047;-47
2024/01/26 12:02:44;;;;;;;13.93;2.67;;;7.70;99.90;;;;;;5072296;28;20615;-50
2024/01/26 12:05:10;;;;;;;12.55;2.42;;;7.30;99.90;;;;;;5073323;28;20040;-46
2024/01/26 12:07:36;;;;;;;11.63;2.25;;;7.70;99.90;;;;;;5073168;28;20089;-48
2024/01/26 12:10:02;;;;;;;9.82;2.08;;;7.40;99.90;;;;;;5073090;28;20040;-51
2024/01/26 12:12:30;;;;;;;16.60;2.53;;;7.70;99.90;;;;;;5065772;28;20534;-49
2024/01/26 12:14:56;;;;;;;12.80;1.65;;;7.40;99.90;;;;;;5069986;28;20033;-50
2024/01/26 12:17:22;;;;;;;14.63;2.72;;;7.40;99.90;;;;;;5071836;28;20565;-47
2024/01/26 12:19:49;;;;;;;14.05;2.80;;;7.60;99.90;;;;;;5072942;28;20036;-47
2024/01/26 12:22:16;;;;;;;11.18;2.72;;;7.70;99.90;;;;;;5072966;28;20036;-47
2024/01/26 12:24:42;;;;;;;11.60;1.73;;;7.60;99.90;;;;;;5073092;28;20044;-46
2024/01/26 12:27:08;;;;;;;13.20;2.90;;;7.60;99.90;;;;;;5072839;28;20124;-50
2024/01/26 12:29:34;;;;;;;6.57;1.60;;;7.40;99.90;;;;;;5054986;28;20432;-49
2024/01/26 12:32:04;;;;;;;17.50;2.50;;;6.70;99.90;;;;;;5052999;28;20123;-49
2024/01/26 12:34:33;;;;;;;18.60;3.72;;;7.40;99.90;;;;;;5051661;28;20041;-46